Time;durP1;ratioP1;P1;durP2;ratioP2;P2;SDS_P1;SDS_P2;PMS_P1;PMS_P2;Temp;Humidity;BMP_temperature;BMP_pressure;BME280_temperature;BME280_humidity;BME280_pressure;Samples;Min_cycle;Max_cycle;Signal;HPM_P1;HPM_P2
2023/10/14 00:01:31;;;;;;;7.43;2.80;;;;;;;23.04;100.00;99545.00;4928228;29;20577;-40
2023/10/14 00:03:59;;;;;;;6.72;2.92;;;;;;;22.99;100.00;99549.47;4930236;29;20653;-42
2023/10/14 00:06:27;;;;;;;5.82;3.10;;;;;;;22.96;100.00;99547.69;4928767;29;20052;-43
2023/10/14 00:11:24;;;;;;;7.32;3.22;;;;;;;22.97;100.00;99540.72;4927908;29;20053;-46
2023/10/14 00:13:52;;;;;;;6.60;3.03;;;;;;;22.95;100.00;99540.44;4929894;29;20067;-42
2023/10/14 00:16:42;;;;;;;4.93;2.80;;;;;;;22.99;100.00;99534.50;4928960;29;20055;-46
2023/10/14 00:19:11;;;;;;;8.40;2.88;;;;;;;22.98;100.00;99538.66;4931345;29;20103;-41
2023/10/14 00:21:38;;;;;;;5.50;2.80;;;;;;;23.00;100.00;99544.53;4929971;29;20047;-41
2023/10/14 00:24:06;;;;;;;7.80;2.83;;;;;;;23.00;100.00;99550.97;4929794;29;20052;-41
2023/10/14 00:26:34;;;;;;;7.00;3.40;;;;;;;23.00;100.00;99541.69;4927243;29;20063;-46
2023/10/14 00:29:20;;;;;;;6.72;2.92;;;;;;;22.99;100.00;99549.47;4928713;29;20056;-40
2023/10/14 00:31:49;;;;;;;6.25;2.90;;;;;;;22.98;100.00;99555.66;4929610;29;20135;-40
2023/10/14 00:34:23;;;;;;;6.18;2.80;;;;;;;23.01;100.00;99560.22;4930977;29;20047;-40
2023/10/14 00:36:50;;;;;;;5.38;2.75;;;;;;;22.98;100.00;99553.56;4929913;29;20051;-40
2023/10/14 00:39:17;;;;;;;5.32;2.80;;;;;;;23.01;100.00;99566.69;4930578;29;20050;-42
2023/10/14 00:41:50;;;;;;;6.95;3.25;;;;;;;23.03;100.00;99561.25;4925579;29;20598;-42
2023/10/14 00:44:18;;;;;;;5.65;2.92;;;;;;;22.99;100.00;99566.47;4929816;29;20067;-44
2023/10/14 00:46:48;;;;;;;5.82;2.85;;;;;;;23.01;100.00;99580.06;4930998;29;20086;-43
2023/10/14 00:49:34;;;;;;;6.85;3.03;;;;;;;22.97;100.00;99579.59;4931060;29;20071;-42
2023/10/14 00:52:10;;;;;;;6.20;3.08;;;;;;;22.97;100.00;99594.56;4922820;29;20112;-41
2023/10/14 00:59:49;;;;;;;7.47;3.45;;;;;;;22.99;100.00;99591.97;4930042;29;20479;-41
2023/10/14 01:02:29;;;;;;;8.80;3.40;;;;;;;23.01;100.00;99594.25;4927599;29;20061;-42
2023/10/14 01:05:06;;;;;;;5.38;2.78;;;;;;;23.01;100.00;99625.41;4930167;29;20062;-44
2023/10/14 01:07:32;;;;;;;5.05;2.65;;;;;;;23.02;100.00;99653.25;4930990;29;20060;-40
2023/10/14 01:10:01;;;;;;;5.53;2.70;;;;;;;23.00;100.00;99704.03;4927713;29;20055;-41
2023/10/14 01:12:48;;;;;;;;;;;;;;;;;;;;;
2023/10/14 01:15:10;;;;;;;10.82;3.22;;;;;;;23.03;100.00;99733.38;4930524;29;20076;-43
2023/10/14 01:17:37;;;;;;;7.43;3.13;;;;;;;22.97;100.00;99736.25;4928209;29;20055;-45
2023/10/14 01:22:43;;;;;;;9.20;3.17;;;;;;;23.13;100.00;99726.09;4929356;29;20106;-41
2023/10/14 01:25:14;;;;;;;6.40;2.83;;;;;;;23.08;100.00;99715.56;4927449;29;20119;-40
2023/10/14 01:27:45;;;;;;;6.68;3.00;;;;;;;23.03;100.00;99716.38;4931099;29;20104;-42
2023/10/14 01:30:25;;;;;;;4.93;3.10;;;;;;;22.97;100.00;99718.47;4932579;29;20506;-40
2023/10/14 01:32:57;;;;;;;8.23;3.38;;;;;;;22.99;100.00;99727.22;4925205;29;20055;-42
2023/10/14 01:38:00;;;;;;;8.02;2.80;;;;;;;22.98;100.00;99748.38;4933324;29;20055;-41
2023/10/14 01:43:30;;;;;;;9.45;2.65;;;;;;;22.98;100.00;99762.53;4910690;29;20120;-42
2023/10/14 01:48:33;;;;;;;5.55;2.47;;;;;;;23.01;100.00;99779.25;4931685;29;20521;-42
2023/10/14 01:50:59;;;;;;;7.35;2.80;;;;;;;22.96;100.00;99777.25;4932460;29;20047;-43
2023/10/14 01:53:34;;;;;;;7.10;2.83;;;;;;;23.00;100.00;99805.28;4930959;29;20047;-43
2023/10/14 01:56:06;;;;;;;5.30;2.70;;;;;;;22.95;100.00;99801.16;4932634;29;20075;-41
2023/10/14 01:58:33;;;;;;;9.10;2.42;;;;;;;23.03;100.00;99812.75;4930272;29;20079;-42
2023/10/14 02:03:54;;;;;;;4.35;2.45;;;;;;;22.99;100.00;99824.38;4930258;29;20435;-42
2023/10/14 02:08:54;;;;;;;10.70;3.83;;;;;;;23.07;100.00;99847.25;4931841;29;20051;-42
2023/10/14 02:11:22;;;;;;;6.40;2.58;;;;;;;23.05;100.00;99858.34;4933278;29;20111;-40
2023/10/14 02:13:51;;;;;;;5.10;2.80;;;;;;;23.07;100.00;99858.59;4931875;29;20622;-42
2023/10/14 02:16:40;;;;;;;5.57;2.50;;;;;;;23.07;100.00;99859.38;4932395;29;20134;-42
2023/10/14 02:22:01;;;;;;;6.03;2.90;;;;;;;23.04;100.00;99865.28;4933270;29;20127;-40
2023/10/14 02:24:28;;;;;;;5.28;2.40;;;;;;;23.04;100.00;99865.28;4931497;29;20139;-41
2023/10/14 02:26:57;;;;;;;4.70;2.40;;;;;;;23.02;100.00;99880.00;4933340;29;20052;-42
2023/10/14 02:29:24;;;;;;;6.82;2.60;;;;;;;23.04;100.00;99882.31;4932971;29;20051;-46
2023/10/14 02:31:51;;;;;;;7.57;2.88;;;;;;;23.04;100.00;99885.13;4932058;29;20082;-41
2023/10/14 02:34:18;;;;;;;4.45;2.10;;;;;;;23.00;100.00;99893.16;4932268;29;20047;-43
2023/10/14 02:36:51;;;;;;;6.40;2.70;;;;;;;22.97;100.00;99897.03;4931046;29;20404;-43
2023/10/14 02:39:26;;;;;;;7.05;3.35;;;;;;;23.00;100.00;99913.00;4932786;29;20048;-42
2023/10/14 02:42:27;;;;;;;5.35;2.60;;;;;;;23.02;100.00;99913.25;4924722;29;20059;-41
2023/10/14 02:44:51;;;;;;;8.27;2.90;;;;;;;22.98;100.00;99919.19;4929393;29;20593;-42
2023/10/14 02:47:26;;;;;;;5.15;2.72;;;;;;;22.97;100.00;99926.16;4932557;29;20044;-41
2023/10/14 02:50:04;;;;;;;7.75;2.55;;;;;;;22.97;100.00;99934.66;4933059;29;20146;-37
2023/10/14 02:52:38;;;;;;;3.97;2.40;;;;;;;22.98;100.00;99936.19;4931667;29;20106;-42
2023/10/14 02:55:22;;;;;;;3.95;2.45;;;;;;;22.98;100.00;99955.28;4927104;29;20059;-40
2023/10/14 02:57:49;;;;;;;8.10;2.60;;;;;;;22.95;100.00;99954.19;4932756;29;20071;-41
2023/10/14 03:00:32;;;;;;;5.43;2.38;;;;;;;22.98;100.00;99980.78;4932295;29;20052;-41
2023/10/14 03:03:02;;;;;;;5.55;2.70;;;;;;;22.97;100.00;99987.72;4932161;29;20570;-43
2023/10/14 03:05:33;;;;;;;4.45;2.50;;;;;;;22.96;100.00;99998.31;4932409;29;20131;-41
2023/10/14 03:08:08;;;;;;;6.60;2.50;;;;;;;22.99;100.00;100007.84;4931488;29;20090;-43
2023/10/14 03:10:39;;;;;;;4.93;2.60;;;;;;;22.97;100.00;100016.84;4932418;29;20462;-41
2023/10/14 03:13:11;;;;;;;4.65;2.42;;;;;;;22.98;100.00;100026.13;4930989;29;20578;-43
2023/10/14 03:15:42;;;;;;;5.30;2.40;;;;;;;22.96;100.00;100021.00;4932184;29;20048;-42
2023/10/14 03:18:12;;;;;;;4.18;2.38;;;;;;;22.95;100.00;100038.47;4932156;29;20044;-40
2023/10/14 03:20:41;;;;;;;5.43;2.10;;;;;;;22.96;100.00;100062.69;4932182;29;20119;-41
2023/10/14 03:25:49;;;;;;;7.50;2.55;;;;;;;22.94;100.00;100074.53;4932037;29;20059;-41
2023/10/14 03:28:19;;;;;;;4.05;2.17;;;;;;;22.93;100.00;100086.41;4931267;29;20052;-41
2023/10/14 03:30:55;;;;;;;4.15;2.03;;;;;;;22.95;100.00;100098.00;4930901;29;20119;-43
2023/10/14 03:33:27;;;;;;;3.08;1.85;;;;;;;22.93;100.00;100103.41;4931400;29;20067;-41
2023/10/14 03:36:02;;;;;;;4.57;2.22;;;;;;;22.91;100.00;100117.34;4923936;29;20482;-42
2023/10/14 03:41:17;;;;;;;5.20;2.50;;;;;;;22.92;100.00;100138.72;4931156;29;20048;-41
2023/10/14 03:43:59;;;;;;;5.40;2.45;;;;;;;22.88;100.00;100135.38;4931162;29;20502;-43
2023/10/14 03:49:25;;;;;;;3.97;2.25;;;;;;;22.90;100.00;100147.72;4930966;29;20495;-41
2023/10/14 03:51:56;;;;;;;4.70;2.10;;;;;;;22.90;100.00;100141.28;4928463;29;20048;-40
2023/10/14 03:54:24;;;;;;;5.13;2.20;;;;;;;22.90;100.00;100146.94;4930880;29;20044;-42
2023/10/14 03:56:51;;;;;;;6.45;2.30;;;;;;;22.89;100.00;100156.75;4922959;29;20126;-40
2023/10/14 03:59:26;;;;;;;6.20;2.47;;;;;;;22.87;100.00;100168.59;4930809;29;20103;-41
2023/10/14 04:02:11;;;;;;;4.78;2.72;;;;;;;22.89;100.00;100165.25;4930470;29;20396;-43
2023/10/14 04:04:42;;;;;;;3.83;2.10;;;;;;;22.90;100.00;100178.91;4929049;29;20150;-43
2023/10/14 04:09:38;;;;;;;4.82;2.10;;;;;;;22.88;100.00;100197.72;4930221;29;20058;-45
2023/10/14 04:12:09;;;;;;;5.65;2.30;;;;;;;22.89;100.00;100207.75;4929339;29;20514;-40
2023/10/14 04:14:37;;;;;;;5.30;2.35;;;;;;;22.88;100.00;100212.66;4931600;29;20130;-40
2023/10/14 04:17:38;;;;;;;4.32;2.00;;;;;;;22.87;100.00;100218.81;4930632;29;20047;-40
2023/10/14 04:20:14;;;;;;;3.15;2.17;;;;;;;22.89;100.00;100230.44;4921587;29;20585;-41
2023/10/14 04:22:41;;;;;;;4.53;2.08;;;;;;;22.86;100.00;100240.75;4930613;29;20055;-40
2023/10/14 04:27:45;;;;;;;3.80;2.22;;;;;;;22.87;100.00;100252.84;4931239;29;20066;-40
2023/10/14 04:30:20;;;;;;;5.73;2.43;;;;;;;22.85;100.00;100250.50;4930867;29;20056;-42
2023/10/14 04:32:57;;;;;;;3.45;2.10;;;;;;;22.86;100.00;100257.75;4930396;29;20059;-42
2023/10/14 04:35:24;;;;;;;4.80;2.10;;;;;;;22.88;100.00;100260.81;4929007;29;20058;-42
2023/10/14 04:37:54;;;;;;;5.07;2.63;;;;;;;22.85;100.00;100272.44;4925948;29;20048;-43
2023/10/14 04:43:19;;;;;;;5.60;2.25;;;;;;;22.84;100.00;100276.53;4930076;29;20427;-43
2023/10/14 04:48:37;;;;;;;3.60;1.92;;;;;;;22.85;100.00;100295.09;4930972;29;20085;-42
2023/10/14 04:51:15;;;;;;;5.55;1.83;;;;;;;22.81;100.00;100300.25;4928197;29;20053;-42
2023/10/14 04:53:49;;;;;;;3.85;2.00;;;;;;;22.80;100.00;100298.69;4930083;29;20052;-43
2023/10/14 04:56:23;;;;;;;6.20;2.80;;;;;;;22.83;100.00;100306.16;4929821;29;20051;-40
2023/10/14 04:58:52;;;;;;;5.85;2.33;;;;;;;22.81;100.00;100315.19;4930260;29;20055;-41
2023/10/14 05:01:20;;;;;;;5.82;1.90;;;;;;;22.78;100.00;100318.28;4929792;29;20522;-43
2023/10/14 05:03:47;;;;;;;4.47;2.08;;;;;;;22.81;100.00;100335.03;4934281;29;20048;-43
2023/10/14 05:06:16;;;;;;;3.65;2.00;;;;;;;22.81;100.00;100332.19;4933215;29;20063;-42
2023/10/14 05:08:47;;;;;;;3.40;1.98;;;;;;;22.81;100.00;100339.94;4934546;29;20055;-41
2023/10/14 05:11:18;;;;;;;6.22;2.08;;;;;;;22.81;100.00;100348.44;4934703;29;20498;-43
2023/10/14 05:13:53;;;;;;;2.55;1.83;;;;;;;22.81;100.00;100362.59;4933512;29;20052;-42
2023/10/14 05:16:22;;;;;;;5.38;2.10;;;;;;;22.80;100.00;100367.47;4934921;29;20130;-39
2023/10/14 05:19:07;;;;;;;5.13;2.10;;;;;;;22.82;100.00;100373.44;4934443;29;20510;-41
2023/10/14 05:21:36;;;;;;;4.18;1.98;;;;;;;22.80;100.00;100375.19;4915874;29;20058;-42
2023/10/14 05:24:06;;;;;;;3.38;2.10;;;;;;;22.82;100.00;100375.47;4932317;29;20044;-43
2023/10/14 05:26:36;;;;;;;5.60;2.30;;;;;;;22.80;100.00;100372.38;4934062;29;20106;-40
2023/10/14 05:29:11;;;;;;;3.97;1.90;;;;;;;22.81;100.00;100383.19;4934248;29;20407;-42
2023/10/14 05:31:37;;;;;;;6.28;2.03;;;;;;;22.81;100.00;100397.38;4932413;29;20051;-42
2023/10/14 05:34:05;;;;;;;3.75;2.05;;;;;;;22.78;100.00;100395.53;4934267;29;20463;-42
2023/10/14 05:36:34;;;;;;;5.13;2.15;;;;;;;22.79;100.00;100402.00;4930355;29;20060;-40
2023/10/14 05:39:02;;;;;;;2.78;1.73;;;;;;;22.78;100.00;100403.28;4913899;29;20040;-41
2023/10/14 05:41:30;;;;;;;3.95;2.13;;;;;;;22.76;100.00;100394.50;4931694;29;20058;-44
2023/10/14 05:43:57;;;;;;;4.90;1.80;;;;;;;22.81;100.00;100410.78;4934098;29;20139;-43
2023/10/14 05:46:23;;;;;;;4.85;2.10;;;;;;;22.79;100.00;100416.16;4932244;29;20074;-42
2023/10/14 05:48:53;;;;;;;3.97;2.05;;;;;;;22.79;100.00;100427.50;4932181;29;20062;-39
2023/10/14 05:51:20;;;;;;;5.00;1.85;;;;;;;22.76;100.00;100428.53;4932751;29;20558;-42
2023/10/14 05:53:46;;;;;;;3.60;2.10;;;;;;;22.77;100.00;100433.69;4933980;29;20130;-41
2023/10/14 05:56:15;;;;;;;4.35;2.00;;;;;;;22.78;100.00;100438.06;4933434;29;20075;-42
2023/10/14 05:58:42;;;;;;;4.82;1.95;;;;;;;22.89;100.00;100448.69;4930908;29;20047;-43
2023/10/14 06:01:10;;;;;;;6.63;2.00;;;;;;;22.79;100.00;100461.50;4933155;29;20051;-39
2023/10/14 06:03:38;;;;;;;8.95;2.20;;;;;;;22.82;100.00;100460.50;4929427;29;20048;-42
2023/10/14 06:06:26;;;;;;;5.20;1.92;;;;;;;22.81;100.00;100471.06;4933021;29;20495;-40
2023/10/14 06:08:53;;;;;;;7.40;2.00;;;;;;;22.82;100.00;100469.00;4925917;29;20139;-39
2023/10/14 06:11:19;;;;;;;4.60;1.65;;;;;;;22.83;100.00;100479.03;4932618;29;20055;-44
2023/10/14 06:13:46;;;;;;;3.97;1.83;;;;;;;22.82;100.00;100483.19;4929507;29;20146;-41
2023/10/14 06:16:13;;;;;;;3.65;1.80;;;;;;;22.80;100.00;100480.84;4933186;29;20644;-41
2023/10/14 06:18:40;;;;;;;5.15;1.80;;;;;;;22.82;100.00;100491.69;4933061;29;20054;-40
2023/10/14 06:21:10;;;;;;;3.75;2.03;;;;;;;22.80;100.00;100499.91;4933105;29;20784;-41
2023/10/14 06:23:46;;;;;;;5.55;2.40;;;;;;;22.81;100.00;100507.13;4933081;29;20099;-41
2023/10/14 06:26:17;;;;;;;4.03;2.05;;;;;;;22.80;100.00;100508.41;4931322;29;20447;-41
2023/10/14 06:28:49;;;;;;;3.80;1.80;;;;;;;22.80;100.00;100514.06;4931884;29;20076;-42
2023/10/14 06:31:18;;;;;;;3.60;1.80;;;;;;;22.79;100.00;100513.31;4933202;29;20054;-40
2023/10/14 06:33:45;;;;;;;3.03;1.73;;;;;;;22.79;100.00;100521.81;4932790;29;20048;-42
2023/10/14 06:36:14;;;;;;;4.72;1.77;;;;;;;22.81;100.00;100529.81;4932349;29;20051;-42
2023/10/14 06:38:44;;;;;;;3.08;1.63;;;;;;;22.77;100.00;100532.06;4932974;29;20107;-40
2023/10/14 06:41:12;;;;;;;4.28;1.60;;;;;;;22.81;100.00;100530.56;4931504;29;20043;-41
2023/10/14 06:43:39;;;;;;;3.17;1.52;;;;;;;22.77;100.00;100549.09;4929099;29;20078;-41
2023/10/14 06:46:05;;;;;;;3.72;1.70;;;;;;;22.76;100.00;100551.16;4935601;29;20055;-41
2023/10/14 06:48:33;;;;;;;5.75;2.20;;;;;;;22.80;100.00;100562.25;4932974;29;20055;-42
2023/10/14 06:51:00;;;;;;;2.72;1.70;;;;;;;22.78;100.00;100559.91;4932561;29;20052;-43
2023/10/14 06:53:28;;;;;;;2.38;1.50;;;;;;;22.78;100.00;100562.00;4927563;29;20071;-41
2023/10/14 06:55:57;;;;;;;3.55;1.70;;;;;;;22.79;100.00;100574.88;4930347;29;20048;-40
2023/10/14 06:58:23;;;;;;;5.45;2.33;;;;;;;22.78;100.00;100582.59;4932423;29;20462;-45
2023/10/14 07:00:50;;;;;;;5.13;1.90;;;;;;;22.81;100.00;100589.31;4932327;29;20430;-41
2023/10/14 07:03:17;;;;;;;4.75;1.65;;;;;;;22.79;100.00;100589.81;4931708;29;20063;-39
2023/10/14 07:05:56;;;;;;;4.40;1.70;;;;;;;22.78;100.00;100587.50;4932385;29;20071;-42
2023/10/14 07:08:27;;;;;;;2.42;1.40;;;;;;;22.79;100.00;100591.88;4930256;29;20047;-40
2023/10/14 07:10:55;;;;;;;5.93;1.77;;;;;;;22.78;100.00;100607.34;4932294;29;20107;-42
2023/10/14 07:13:23;;;;;;;5.93;2.00;;;;;;;22.81;100.00;100607.09;4932371;29;20043;-42
2023/10/14 07:15:51;;;;;;;7.88;2.20;;;;;;;22.84;100.00;100610.97;4932086;29;20048;-40
2023/10/14 07:18:22;;;;;;;2.95;1.73;;;;;;;22.85;100.00;100612.53;4928655;29;20077;-39
2023/10/14 07:21:12;;;;;;;5.57;1.83;;;;;;;22.84;100.00;100613.78;4931768;29;20431;-40
2023/10/14 07:23:39;;;;;;;3.05;1.52;;;;;;;22.81;100.00;100617.66;4931419;29;20147;-42
2023/10/14 07:26:13;;;;;;;5.20;1.80;;;;;;;22.82;100.00;100616.38;4931128;29;20051;-41
2023/10/14 07:28:44;;;;;;;7.40;1.85;;;;;;;22.84;100.00;100630.81;4929893;29;20510;-39
2023/10/14 07:31:12;;;;;;;6.20;1.85;;;;;;;22.84;100.00;100639.31;4931238;29;20058;-42
2023/10/14 07:33:40;;;;;;;6.88;1.90;;;;;;;22.84;100.00;100637.25;4928937;29;20052;-42
2023/10/14 07:36:07;;;;;;;4.60;1.60;;;;;;;22.85;100.00;100646.56;4929910;29;20051;-36
2023/10/14 07:38:35;;;;;;;3.20;1.65;;;;;;;22.86;100.00;100646.03;4931591;29;20052;-40
2023/10/14 07:41:03;;;;;;;6.25;2.78;;;;;;;22.82;100.00;100648.34;4930680;29;20052;-40
2023/10/14 07:43:29;;;;;;;4.85;2.00;;;;;;;22.83;100.00;100649.09;4931109;29;20059;-42
2023/10/14 07:45:58;;;;;;;5.93;1.98;;;;;;;22.76;100.00;100652.41;4929920;29;20056;-40
2023/10/14 07:48:25;;;;;;;6.28;1.65;;;;;;;22.77;100.00;100659.59;4927724;29;20056;-42
2023/10/14 07:50:56;;;;;;;12.73;1.88;;;;;;;22.78;100.00;100659.09;4930856;29;20454;-41
2023/10/14 07:53:23;;;;;;;7.60;2.03;;;;;;;22.69;100.00;100662.16;4931384;29;20047;-42
2023/10/14 07:55:52;;;;;;;9.90;2.25;;;;;;;22.65;100.00;100669.31;4930079;29;20426;-39
2023/10/14 07:58:25;;;;;;;8.73;2.33;;;;;;;22.66;100.00;100662.34;4925999;29;20826;-40
2023/10/14 08:00:54;;;;;;;10.88;2.80;;;;;;;22.66;100.00;100668.81;4926168;29;20083;-41
2023/10/14 08:03:23;;;;;;;7.55;1.83;;;;;;;22.67;100.00;100678.06;4930838;29;20044;-41
2023/10/14 08:05:59;;;;;;;6.47;1.92;;;;;;;22.71;100.00;100685.06;4929835;29;20404;-40
2023/10/14 08:08:31;;;;;;;6.95;1.92;;;;;;;22.69;100.00;100686.84;4931009;29;20047;-40
2023/10/14 08:10:59;;;;;;;7.82;1.85;;;;;;;22.76;100.00;100683.56;4929218;29;20104;-40
2023/10/14 08:13:26;;;;;;;7.03;1.77;;;;;;;22.76;100.00;100706.25;4927917;29;20099;-41
2023/10/14 08:15:55;;;;;;;11.38;2.00;;;;;;;22.74;100.00;100703.91;4930439;29;20095;-39
2023/10/14 08:18:25;;;;;;;8.40;2.70;;;;;;;22.57;100.00;100719.97;4930194;29;20051;-42
2023/10/14 08:20:53;;;;;;;7.35;1.98;;;;;;;22.53;100.00;100712.97;4931189;29;20051;-41
2023/10/14 08:23:25;;;;;;;9.95;2.10;;;;;;;22.38;100.00;100720.81;4930593;29;20051;-42
2023/10/14 08:25:55;;;;;;;12.82;2.55;;;;;;;22.28;100.00;100713.72;4930379;29;20463;-40
2023/10/14 08:28:22;;;;;;;10.38;2.13;;;;;;;22.35;100.00;100727.47;4931153;29;20107;-40
2023/10/14 08:30:50;;;;;;;13.07;2.17;;;;;;;22.27;100.00;100718.59;4931033;29;20054;-41
2023/10/14 08:33:20;;;;;;;14.18;2.30;;;;;;;22.26;100.00;100731.22;4931531;29;20054;-41
2023/10/14 08:35:48;;;;;;;11.43;1.98;;;;;;;22.25;100.00;100717.53;4930626;29;20055;-41
2023/10/14 08:38:19;;;;;;;14.75;2.35;;;;;;;22.21;100.00;100729.09;4937444;29;20043;-40
2023/10/14 08:40:49;;;;;;;8.43;2.50;;;;;;;22.16;100.00;100726.97;4935701;29;20055;-41
2023/10/14 08:43:20;;;;;;;13.20;2.13;;;;;;;22.17;100.00;100736.25;4935194;29;20114;-41
2023/10/14 08:45:51;;;;;;;10.50;2.38;;;;;;;22.14;100.00;100733.13;4932993;29;20798;-42
2023/10/14 08:48:26;;;;;;;11.77;2.17;;;;;;;22.09;100.00;100731.03;4937570;29;20320;-42
2023/10/14 08:50:56;;;;;;;8.95;2.28;;;;;;;22.13;100.00;100737.25;4933670;29;20050;-41
2023/10/14 08:53:25;;;;;;;14.48;2.45;;;;;;;22.00;100.00;100744.53;4933912;29;20048;-40
2023/10/14 08:55:52;;;;;;;13.55;2.65;;;;;;;21.99;100.00;100734.50;4929186;29;20091;-40
2023/10/14 08:58:22;;;;;;;12.57;2.10;;;;;;;21.95;100.00;100740.38;4936341;29;20139;-39
2023/10/14 09:00:51;;;;;;;14.35;2.47;;;;;;;21.86;100.00;100753.88;4935552;29;20533;-39
2023/10/14 09:03:19;;;;;;;15.32;2.72;;;;;;;21.78;100.00;100753.50;4937174;29;20047;-40
2023/10/14 09:05:46;;;;;;;18.27;2.95;;;;;;;21.75;100.00;100765.03;4936892;29;20490;-41
2023/10/14 09:08:15;;;;;;;13.63;2.65;;;;;;;21.83;100.00;100766.19;4934436;29;20111;-39
2023/10/14 09:10:43;;;;;;;13.30;2.63;;;;;;;21.85;100.00;100757.97;4934268;29;20570;-42
2023/10/14 09:13:19;;;;;;;13.35;2.47;;;;;;;21.98;100.00;100767.66;4937683;29;20134;-39
2023/10/14 09:15:48;;;;;;;11.48;2.13;;;;;;;22.06;100.00;100773.69;4937145;29;20055;-41
2023/10/14 09:18:21;;;;;;;13.40;1.92;;;;;;;21.91;100.00;100773.75;4935133;29;20051;-40
2023/10/14 09:20:56;;;;;;;10.57;1.95;;;;;;;21.92;100.00;100772.50;4936862;29;20498;-41
2023/10/14 09:23:24;;;;;;;14.15;2.70;;;;;;;21.89;100.00;100772.69;4935744;29;20079;-40
2023/10/14 09:25:53;;;;;;;11.70;2.53;;;;;;;21.88;100.00;100776.81;4936888;29;20403;-41
2023/10/14 09:28:21;;;;;;;15.10;2.00;;;;;;;21.84;100.00;100784.72;4885333;29;20052;-42
2023/10/14 09:30:51;;;;;;;16.02;2.22;;;;;;;21.83;100.00;100783.16;4934135;29;20051;-42
2023/10/14 09:33:22;;;;;;;11.45;2.40;;;;;;;21.72;100.00;100789.44;4936263;29;20115;-41
2023/10/14 09:35:50;;;;;;;18.20;2.97;;;;;;;21.77;100.00;100791.56;4936136;29;20059;-40
2023/10/14 09:38:19;;;;;;;11.85;2.40;;;;;;;21.80;100.00;100784.13;4937583;29;20055;-41
2023/10/14 09:40:57;;;;;;;14.07;2.90;;;;;;;21.81;100.00;100802.69;4936477;29;20066;-39
2023/10/14 09:43:24;;;;;;;10.48;1.92;;;;;;;21.78;100.00;100798.78;4936738;29;20055;-39
2023/10/14 09:45:56;;;;;;;13.90;2.30;;;;;;;21.81;100.00;100791.38;4933241;29;20750;-40
2023/10/14 09:48:25;;;;;;;11.40;2.30;;;;;;;21.78;100.00;100803.69;4918152;29;20040;-40
2023/10/14 09:50:54;;;;;;;16.63;2.58;;;;;;;21.84;100.00;100801.72;4933037;29;20102;-41
2023/10/14 09:53:26;;;;;;;11.05;2.03;;;;;;;21.71;100.00;100804.84;4933617;29;20776;-41
2023/10/14 09:56:04;;;;;;;14.65;2.70;;;;;;;21.74;100.00;100803.13;4927900;29;20075;-42
2023/10/14 09:58:41;;;;;;;9.85;2.40;;;;;;;21.73;100.00;100807.97;4932654;29;20052;-40
2023/10/14 10:01:19;;;;;;;13.13;2.58;;;;;;;21.71;100.00;100804.84;4933640;29;20076;-40
2023/10/14 10:04:02;;;;;;;14.38;2.38;;;;;;;21.72;100.00;100806.44;4933565;29;20083;-39
2023/10/14 10:06:32;;;;;;;9.90;2.83;;;;;;;21.74;100.00;100812.34;4933056;29;20523;-39
2023/10/14 10:09:19;;;;;;;13.43;2.40;;;;;;;21.77;100.00;100821.94;4933597;29;20060;-40
2023/10/14 10:11:50;;;;;;;8.00;2.10;;;;;;;21.77;100.00;100822.69;4931547;29;20051;-40
2023/10/14 10:14:19;;;;;;;14.27;2.90;;;;;;;21.73;100.00;100824.16;4932345;29;20040;-40
2023/10/14 10:16:50;;;;;;;16.83;2.58;;;;;;;21.69;100.00;100826.44;4932763;29;20055;-41
2023/10/14 10:19:17;;;;;;;10.07;2.15;;;;;;;21.73;100.00;100827.78;4933532;29;20058;-42
2023/10/14 10:22:17;;;;;;;17.25;2.55;;;;;;;21.75;100.00;100822.44;4930746;29;20051;-42
2023/10/14 10:24:47;;;;;;;10.55;2.15;;;;;;;21.78;100.00;100840.47;4927400;29;20135;-42
2023/10/14 10:27:16;;;;;;;15.25;2.72;;;;;;;21.69;100.00;100830.03;4933128;29;20051;-41
2023/10/14 10:29:50;;;;;;;12.23;2.33;;;;;;;21.72;100.00;100840.38;4933259;29;20056;-38
2023/10/14 10:32:21;;;;;;;12.77;2.20;;;;;;;21.64;100.00;100846.94;4933106;29;20134;-40
2023/10/14 10:35:06;;;;;;;14.38;2.70;;;;;;;21.67;100.00;100849.56;4932752;29;20573;-42
2023/10/14 10:37:39;;;;;;;11.80;2.20;;;;;;;21.70;100.00;100839.28;4930881;29;20537;-41
2023/10/14 10:40:10;;;;;;;12.15;2.25;;;;;;;21.70;100.00;100842.91;4932222;29;20087;-39
2023/10/14 10:42:41;;;;;;;13.68;2.00;;;;;;;21.61;100.00;100857.13;4932868;29;20111;-41
2023/10/14 10:45:20;;;;;;;10.10;1.77;;;;;;;21.65;100.00;100851.31;4930259;29;20354;-40
2023/10/14 10:47:57;;;;;;;8.05;1.85;;;;;;;21.62;100.00;100847.41;4930529;29;20052;-40
2023/10/14 10:50:34;;;;;;;19.17;3.45;;;;;;;21.68;100.00;100837.00;4932031;29;20052;-42
2023/10/14 10:53:07;;;;;;;13.07;2.83;;;;;;;21.60;100.00;100840.69;4922118;29;20055;-42
2023/10/14 10:55:37;;;;;;;13.05;2.75;;;;;;;21.62;100.00;100835.28;4930730;29;20056;-40
2023/10/14 10:58:06;;;;;;;15.20;2.30;;;;;;;21.69;100.00;100846.22;4932814;29;20148;-40
2023/10/14 11:00:33;;;;;;;13.93;2.25;;;;;;;21.67;100.00;100852.38;4931321;29;20056;-41
2023/10/14 11:03:00;;;;;;;13.25;2.38;;;;;;;21.71;100.00;100849.38;4929128;29;20549;-41
2023/10/14 11:05:31;;;;;;;12.30;2.00;;;;;;;21.79;100.00;100848.47;4932490;29;20499;-41
2023/10/14 11:07:57;;;;;;;13.30;2.25;;;;;;;21.88;100.00;100853.97;4915608;29;20464;-40
2023/10/14 11:10:33;;;;;;;12.00;2.10;;;;;;;21.87;100.00;100860.91;4928058;29;20159;-40
2023/10/14 11:13:00;;;;;;;16.85;2.92;;;;;;;21.90;100.00;100857.13;4925800;29;20048;-39
2023/10/14 11:15:31;;;;;;;13.30;2.65;;;;;;;21.94;100.00;100852.03;4932227;29;20511;-41
2023/10/14 11:18:00;;;;;;;11.65;2.10;;;;;;;21.95;100.00;100864.13;4931400;29;20047;-39
2023/10/14 11:20:43;;;;;;;8.85;1.58;;;;;;;22.02;100.00;100858.06;4930699;29;20066;-40
2023/10/14 11:23:11;;;;;;;13.98;2.05;;;;;;;22.06;100.00;100850.91;4917343;29;20056;-42
2023/10/14 11:25:40;;;;;;;11.98;2.15;;;;;;;22.00;100.00;100852.88;4927273;29;20047;-42
2023/10/14 11:28:09;;;;;;;13.38;2.10;;;;;;;22.07;100.00;100854.50;4928395;29;20052;-41
2023/10/14 11:30:44;;;;;;;11.80;2.00;;;;;;;22.06;100.00;100855.78;4925812;29;20146;-41
2023/10/14 11:33:12;;;;;;;14.60;2.78;;;;;;;22.07;100.00;100857.34;4929106;29;20071;-41
2023/10/14 11:35:39;;;;;;;9.25;2.47;;;;;;;22.06;100.00;100856.59;4928495;29;20491;-43
2023/10/14 11:38:12;;;;;;;12.40;2.15;;;;;;;22.13;100.00;100851.78;4927160;29;20056;-40
2023/10/14 11:40:45;;;;;;;13.32;2.30;;;;;;;22.10;100.00;100857.16;4926951;29;20572;-41
2023/10/14 11:43:11;;;;;;;11.05;2.40;;;;;;;22.09;100.00;100849.94;4933407;29;20048;-40
2023/10/14 11:45:45;;;;;;;12.57;2.13;;;;;;;22.09;100.00;100847.09;4930759;29;20051;-40
2023/10/14 11:48:27;;;;;;;9.15;1.70;;;;;;;22.13;100.00;100846.88;4931285;29;20059;-42
2023/10/14 11:50:58;;;;;;;8.43;1.60;;;;;;;22.13;100.00;100852.53;4922842;29;20062;-42
2023/10/14 11:53:29;;;;;;;10.48;2.22;;;;;;;22.14;100.00;100843.56;4915278;29;20056;-41
2023/10/14 11:55:58;;;;;;;12.57;1.80;;;;;;;22.14;100.00;100851.25;4920296;29;20131;-41
2023/10/14 11:58:30;;;;;;;10.20;2.10;;;;;;;22.15;100.00;100850.00;4922183;29;20123;-41
2023/10/14 12:00:58;;;;;;;11.38;2.17;;;;;;;22.14;100.00;100852.06;4923655;29;20743;-41
2023/10/14 12:03:25;;;;;;;9.95;2.25;;;;;;;22.11;100.00;100850.19;4928069;29;20051;-41
2023/10/14 12:05:59;;;;;;;14.18;2.40;;;;;;;22.07;100.00;100858.13;4928974;29;20043;-40
2023/10/14 12:08:28;;;;;;;10.35;2.00;;;;;;;22.11;100.00;100843.78;4930780;29;20522;-40
2023/10/14 12:10:57;;;;;;;11.05;2.08;;;;;;;22.17;100.00;100847.44;4925221;29;20486;-39
2023/10/14 12:13:25;;;;;;;9.10;1.70;;;;;;;22.20;100.00;100845.69;4932261;29;20087;-40
2023/10/14 12:16:11;;;;;;;9.73;1.67;;;;;;;22.25;100.00;100847.81;4922717;29;20048;-44
2023/10/14 12:18:38;;;;;;;9.52;2.03;;;;;;;22.07;100.00;100858.13;4926719;29;20578;-40
2023/10/14 12:21:05;;;;;;;8.95;1.80;;;;;;;22.01;100.00;100854.44;4930437;29;20051;-41